Time;durP1;ratioP1;P1;durP2;ratioP2;P2;SDS_P1;SDS_P2;PMS_P1;PMS_P2;Temp;Humidity;BMP_temperature;BMP_pressure;BME280_temperature;BME280_humidity;BME280_pressure;Samples;Min_cycle;Max_cycle;Signal;HPM_P1;HPM_P2
2022/12/26 00:00:12;;;;;;;42.63;17.92;;;;;;;2.79;100.00;101340.06;5039137;28;20464;-70
2022/12/26 00:02:37;;;;;;;39.67;17.83;;;;;;;2.82;100.00;101338.94;5039378;28;20111;-70
2022/12/26 00:05:03;;;;;;;40.60;18.52;;;;;;;2.84;100.00;101343.03;5031333;28;20073;-71
2022/12/26 00:07:28;;;;;;;42.85;18.45;;;;;;;2.88;100.00;101348.75;5039210;28;20075;-70
2022/12/26 00:09:54;;;;;;;41.55;19.05;;;;;;;2.84;100.00;101350.00;5039062;28;20413;-70
2022/12/26 00:12:19;;;;;;;36.72;16.95;;;;;;;2.90;100.00;101355.44;5033753;28;20014;-70
2022/12/26 00:14:44;;;;;;;40.72;17.25;;;;;;;2.94;100.00;101354.16;5040605;28;20040;-70
2022/12/26 00:17:10;;;;;;;39.53;18.60;;;;;;;2.98;100.00;101354.69;5043066;28;20102;-70
2022/12/26 00:19:35;;;;;;;40.25;17.98;;;;;;;2.97;100.00;101353.06;5038144;28;20060;-70
2022/12/26 00:22:00;;;;;;;36.78;16.77;;;;;;;2.98;100.00;101355.50;5037518;28;20529;-71
2022/12/26 00:24:26;;;;;;;36.58;16.13;;;;;;;3.04;100.00;101364.50;5032079;28;20076;-71
2022/12/26 00:26:51;;;;;;;40.78;17.23;;;;;;;3.03;100.00;101359.44;5040328;28;20048;-71
2022/12/26 00:29:16;;;;;;;40.08;17.20;;;;;;;3.12;100.00;101369.75;5036974;28;20052;-71
2022/12/26 00:31:42;;;;;;;37.35;16.95;;;;;;;3.15;100.00;101369.44;5031851;28;20026;-72
2022/12/26 00:34:09;;;;;;;40.55;16.20;;;;;;;3.14;100.00;101367.81;5038784;28;20028;-71
2022/12/26 00:36:34;;;;;;;39.33;17.15;;;;;;;3.22;100.00;101371.44;5047039;28;20360;-72
2022/12/26 00:39:02;;;;;;;43.55;16.25;;;;;;;3.08;100.00;101352.78;5040310;28;20036;-72
2022/12/26 00:41:28;;;;;;;41.53;17.67;;;;;;;3.26;100.00;101370.97;5039891;28;20032;-71
2022/12/26 00:43:54;;;;;;;44.67;16.88;;;;;;;3.29;100.00;101373.28;5032224;28;20437;-70
2022/12/26 00:46:20;;;;;;;48.28;17.02;;;;;;;3.28;100.00;101371.66;5047045;28;20029;-72
2022/12/26 00:48:45;;;;;;;37.33;16.13;;;;;;;3.26;100.00;101370.97;5036594;28;20066;-70
2022/12/26 00:51:11;;;;;;;38.60;16.33;;;;;;;3.32;100.00;101388.56;5034855;28;20060;-70
2022/12/26 00:53:36;;;;;;;40.35;16.35;;;;;;;3.41;100.00;101395.47;5039147;28;20037;-70
2022/12/26 00:56:02;;;;;;;40.95;16.35;;;;;;;3.38;100.00;101382.78;5042946;28;20391;-70
2022/12/26 00:58:28;;;;;;;39.40;15.75;;;;;;;3.34;100.00;101370.22;5035462;28;20033;-71
2022/12/26 01:00:54;;;;;;;37.65;15.75;;;;;;;3.49;100.00;101391.28;5037841;28;20029;-71
2022/12/26 01:03:20;;;;;;;40.55;15.18;;;;;;;3.43;100.00;101382.31;5040688;28;20048;-72
2022/12/26 01:05:49;;;;;;;126.68;19.00;;;;;;;3.41;100.00;101385.06;5039701;28;20112;-71
2022/12/26 01:08:15;;;;;;;36.08;15.48;;;;;;;3.41;100.00;101373.84;5033825;28;20048;-71
2022/12/26 01:10:42;;;;;;;37.53;15.65;;;;;;;3.56;100.00;101393.13;5046828;28;20036;-70
2022/12/26 01:13:08;;;;;;;38.05;14.85;;;;;;;3.58;100.00;101383.38;5036675;28;20036;-72
2022/12/26 01:15:33;;;;;;;33.50;13.82;;;;;;;3.54;100.00;101371.63;5035046;28;20387;-73
2022/12/26 01:17:59;;;;;;;34.50;14.07;;;;;;;3.54;100.00;101368.19;5041812;28;20497;-73
2022/12/26 01:20:26;;;;;;;34.83;14.90;;;;;;;3.49;100.00;101366.06;5034849;28;20025;-73
2022/12/26 01:22:52;;;;;;;31.77;13.98;;;;;;;3.57;100.00;101373.94;5037609;28;20490;-74
2022/12/26 01:25:17;;;;;;;33.85;14.13;;;;;;;3.54;100.00;101357.78;5033307;28;20129;-74
2022/12/26 01:27:43;;;;;;;29.83;13.25;;;;;;;3.57;100.00;101358.31;5035236;28;20527;-71
2022/12/26 01:30:08;;;;;;;34.10;13.55;;;;;;;3.59;100.00;101358.13;5037416;28;20041;-72
2022/12/26 01:32:34;;;;;;;26.33;12.95;;;;;;;3.58;100.00;101354.72;5037527;28;20100;-72
2022/12/26 01:34:59;;;;;;;32.40;12.68;;;;;;;3.59;100.00;101363.34;5038887;28;20021;-73
2022/12/26 01:37:25;;;;;;;24.40;12.13;;;;;;;3.64;100.00;101361.13;5037584;28;20060;-72
2022/12/26 01:39:51;;;;;;;30.00;12.23;;;;;;;3.56;100.00;101341.03;5030441;28;20495;-72
2022/12/26 01:42:18;;;;;;;22.15;12.10;;;;;;;3.66;100.00;101345.31;5037459;28;20029;-72
2022/12/26 01:45:22;;;;;;;24.50;11.38;;;;;;;3.70;100.00;101351.84;5044227;28;20026;-72
2022/12/26 01:47:54;;;;;;;23.60;11.07;;;;;;;3.73;100.00;101346.31;5037074;28;20107;-73
2022/12/26 01:50:28;;;;;;;26.13;11.55;;;;;;;3.77;100.00;101345.03;5034407;28;20446;-74
2022/12/26 01:52:58;;;;;;;28.30;11.63;;;;;;;3.74;100.00;101340.97;5035578;28;20025;-74
2022/12/26 01:55:25;;;;;;;25.83;11.07;;;;;;;3.78;100.00;101342.28;5034845;28;20079;-73
2022/12/26 01:57:59;;;;;;;23.85;11.75;;;;;;;3.72;100.00;101334.28;5036480;28;20074;-73
2022/12/26 02:00:25;;;;;;;31.23;11.70;;;;;;;3.65;100.00;101325.47;5036576;28;20090;-73
2022/12/26 02:05:36;;;;;;;20.60;10.57;;;;;;;3.88;100.00;101346.53;5043634;28;20494;-73
2022/12/26 02:08:18;;;;;;;23.50;11.88;;;;;;;3.84;100.00;101338.22;5043107;28;20021;-73
2022/12/26 02:10:59;;;;;;;21.05;11.52;;;;;;;3.83;100.00;101345.25;5043351;28;20040;-73
2022/12/26 02:13:26;;;;;;;23.08;12.32;;;;;;;3.74;100.00;101324.53;5046164;28;20121;-70
2022/12/26 02:15:51;;;;;;;28.13;12.32;;;;;;;3.93;100.00;101354.72;5044692;28;20033;-70
2022/12/26 02:18:17;;;;;;;23.95;11.43;;;;;;;4.01;100.00;101352.13;5060884;28;20079;-71
2022/12/26 02:20:58;;;;;;;23.15;11.18;;;;;;;4.00;100.00;101350.50;5045439;28;20086;-70
2022/12/26 02:23:23;;;;;;;21.60;11.32;;;;;;;3.99;100.00;101344.47;5045178;28;20064;-71
2022/12/26 02:26:07;;;;;;;19.55;11.07;;;;;;;3.98;100.00;101332.41;5040845;28;20443;-71
2022/12/26 02:29:00;;;;;;;22.90;11.93;;;;;;;3.99;100.00;101344.47;5044385;28;20028;-71
2022/12/26 02:31:52;;;;;;;22.02;10.90;;;;;;;3.96;100.00;101351.78;5042556;28;20054;-71
2022/12/26 02:34:49;;;;;;;26.75;11.20;;;;;;;3.87;100.00;101360.53;5045603;28;20456;-71
2022/12/26 02:37:18;;;;;;;23.00;11.32;;;;;;;3.84;100.00;101356.47;5044754;28;20100;-71
2022/12/26 02:40:16;;;;;;;25.75;11.55;;;;;;;3.77;100.00;101356.28;5044938;28;20128;-71
2022/12/26 02:42:58;;;;;;;19.65;10.55;;;;;;;3.73;100.00;101343.72;5027383;28;20033;-71
2022/12/26 02:48:19;;;;;;;20.50;10.18;;;;;;;3.80;100.00;101368.97;5037201;28;20082;-74
2022/12/26 03:14:23;;;;;;;20.95;10.02;;;;;;;3.80;100.00;101331.69;5036012;28;20431;-73
2022/12/26 03:17:35;;;;;;;20.02;10.50;;;;;;;3.89;100.00;101340.38;5043869;28;20029;-73
2022/12/26 03:20:00;;;;;;;21.48;10.48;;;;;;;3.88;100.00;101338.72;5031917;28;20068;-73
2022/12/26 03:22:45;;;;;;;19.25;10.20;;;;;;;3.63;100.00;101300.38;5032244;28;20045;-74
2022/12/26 03:28:02;;;;;;;16.75;8.63;;;;;;;3.86;100.00;101330.28;5037069;28;20032;-74
2022/12/26 03:36:02;;;;;;;17.58;9.52;;;;;;;3.86;100.00;101333.69;4958000;28;20046;-74
2022/12/26 03:38:54;;;;;;;20.00;8.80;;;;;;;3.89;100.00;101335.97;4974435;28;20050;-74
2022/12/26 04:19:22;;;;;;;18.73;9.65;;;;;;;4.00;100.00;101338.28;4971455;28;20150;-73
2022/12/26 04:19:36;;;;;;;15.63;7.28;;;;;;;3.86;100.00;101331.09;5037702;28;20068;-72
2022/12/26 04:44:56;;;;;;;12.98;7.40;;;;;;;3.83;100.00;101323.56;5032301;28;20083;-73
2022/12/26 04:47:22;;;;;;;14.20;6.70;;;;;;;3.88;100.00;101325.69;5037630;28;20029;-72
2022/12/26 04:55:17;;;;;;;18.80;6.85;;;;;;;3.93;100.00;101339.09;5037543;28;20120;-73
2022/12/26 04:57:43;;;;;;;16.45;7.60;;;;;;;3.91;100.00;101333.22;5042693;28;20025;-74
2022/12/26 05:00:09;;;;;;;12.73;7.00;;;;;;;3.89;100.00;101330.75;5041119;28;20025;-73
2022/12/26 05:10:47;;;;;;;13.68;7.88;;;;;;;3.96;100.00;101326.53;5035244;28;20522;-73
2022/12/26 05:13:12;;;;;;;14.70;7.53;;;;;;;3.98;100.00;101332.41;5033803;28;20033;-73
2022/12/26 05:29:32;;;;;;;14.38;7.10;;;;;;;4.01;100.00;101313.84;5034188;28;20036;-73
2022/12/26 05:31:58;;;;;;;14.18;7.38;;;;;;;4.01;100.00;101313.84;5033384;28;20033;-73
2022/12/26 05:34:23;;;;;;;14.52;7.38;;;;;;;4.02;100.00;101307.69;5036727;28;20021;-73
2022/12/26 05:36:52;;;;;;;16.17;6.80;;;;;;;3.93;100.00;101298.22;5040952;28;20025;-73
2022/12/26 05:39:18;;;;;;;12.93;7.18;;;;;;;4.00;100.00;101303.59;5042862;28;20434;-74
2022/12/26 05:41:44;;;;;;;15.27;7.60;;;;;;;4.01;100.00;101302.63;5041830;28;20029;-74
2022/12/26 05:44:10;;;;;;;15.35;7.68;;;;;;;4.00;100.00;101299.19;5042916;28;20144;-73
2022/12/26 05:46:36;;;;;;;14.18;8.00;;;;;;;3.96;100.00;101300.50;5039755;28;20057;-72
2022/12/26 05:49:03;;;;;;;14.07;7.75;;;;;;;3.94;100.00;101301.63;5040359;28;20032;-72
2022/12/26 05:51:28;;;;;;;15.52;7.13;;;;;;;4.03;100.00;101314.50;5043028;28;20115;-73
2022/12/26 05:53:54;;;;;;;17.25;7.55;;;;;;;4.14;100.00;101325.59;5044228;28;20766;-73
2022/12/26 05:56:20;;;;;;;14.27;6.93;;;;;;;4.14;100.00;101320.38;5041244;28;20103;-73
2022/12/26 05:58:46;;;;;;;14.95;7.00;;;;;;;4.21;100.00;101337.03;5041306;28;20045;-73
2022/12/26 06:01:13;;;;;;;14.80;7.32;;;;;;;4.25;100.00;101348.78;5045484;28;20032;-74
2022/12/26 06:03:42;;;;;;;13.88;7.32;;;;;;;4.30;100.00;101337.88;5037801;28;20468;-73
2022/12/26 06:06:07;;;;;;;15.65;7.13;;;;;;;4.23;100.00;101319.44;5038565;28;20021;-74
2022/12/26 06:08:33;;;;;;;13.15;7.32;;;;;;;4.17;100.00;101307.88;5034910;28;20478;-73
2022/12/26 06:11:02;;;;;;;17.05;6.68;;;;;;;4.23;100.00;101309.00;5033977;28;20025;-74
2022/12/26 06:13:27;;;;;;;12.65;6.57;;;;;;;4.24;100.00;101314.06;5043172;28;20029;-73
2022/12/26 06:15:53;;;;;;;16.52;7.70;;;;;;;4.28;100.00;101337.22;5041656;28;20537;-74
2022/12/26 06:18:18;;;;;;;15.20;7.82;;;;;;;4.19;100.00;101320.72;5039312;28;20029;-73
2022/12/26 06:20:43;;;;;;;14.55;7.25;;;;;;;4.29;100.00;101331.84;5036149;28;20051;-73
2022/12/26 06:23:09;;;;;;;12.25;6.43;;;;;;;4.31;100.00;101336.88;5035606;28;20186;-73
2022/12/26 06:25:34;;;;;;;15.07;7.13;;;;;;;4.34;100.00;101352.22;5040677;28;20029;-74
2022/12/26 06:27:59;;;;;;;13.50;6.78;;;;;;;4.27;100.00;101365.06;5037667;28;20029;-74
2022/12/26 06:30:25;;;;;;;11.82;6.65;;;;;;;4.32;100.00;101362.81;5034654;28;20025;-73
2022/12/26 06:32:50;;;;;;;12.30;6.43;;;;;;;4.33;100.00;101342.75;5039816;28;20040;-73
2022/12/26 06:35:15;;;;;;;9.70;5.70;;;;;;;4.23;100.00;101325.47;5038071;28;20026;-74
2022/12/26 06:37:41;;;;;;;15.15;6.47;;;;;;;4.33;100.00;101342.75;5046134;28;20033;-74
2022/12/26 06:40:07;;;;;;;11.45;6.20;;;;;;;4.35;100.00;101356.44;5035676;28;20037;-73
2022/12/26 06:42:32;;;;;;;12.75;6.32;;;;;;;4.27;100.00;101336.41;5041792;28;20025;-74
2022/12/26 06:44:57;;;;;;;13.77;6.80;;;;;;;4.41;100.00;101350.59;5040829;28;20379;-74
2022/12/26 06:47:23;;;;;;;12.40;6.50;;;;;;;4.45;100.00;101357.94;5035635;28;20037;-74
2022/12/26 06:49:48;;;;;;;12.68;6.90;;;;;;;4.32;100.00;101333.31;5044138;28;20024;-76
2022/12/26 06:52:13;;;;;;;14.65;6.85;;;;;;;4.33;100.00;101340.97;5038733;28;20499;-74
2022/12/26 06:54:39;;;;;;;10.93;5.75;;;;;;;4.40;100.00;101347.16;5052954;28;20033;-73
2022/12/26 06:57:05;;;;;;;12.30;6.25;;;;;;;4.45;100.00;101357.94;5045049;28;20040;-73
2022/12/26 06:59:30;;;;;;;12.48;6.47;;;;;;;4.42;100.00;101363.47;5034487;28;20112;-73
2022/12/26 07:01:56;;;;;;;13.02;6.63;;;;;;;4.42;100.00;101350.44;5043697;28;20033;-74
2022/12/26 07:04:21;;;;;;;13.60;6.18;;;;;;;4.49;100.00;101363.66;5039342;28;20025;-73
2022/12/26 07:06:46;;;;;;;11.00;5.90;;;;;;;4.50;100.00;101365.25;5042927;28;20483;-73
2022/12/26 07:09:15;;;;;;;11.23;5.60;;;;;;;4.52;100.00;101370.34;5054063;28;20032;-74
2022/12/26 07:11:43;;;;;;;12.18;6.38;;;;;;;4.58;100.00;101374.91;5044420;28;20079;-74
2022/12/26 07:14:09;;;;;;;11.40;6.30;;;;;;;4.52;100.00;101359.91;5032068;28;20026;-74
2022/12/26 07:16:39;;;;;;;12.15;6.43;;;;;;;4.59;100.00;101366.09;5032993;28;20063;-73
2022/12/26 07:19:04;;;;;;;12.55;7.53;;;;;;;4.33;100.00;101319.28;5034311;28;20033;-74
2022/12/26 07:21:30;;;;;;;13.10;6.60;;;;;;;4.57;100.00;101363.66;5038183;28;20029;-73
2022/12/26 07:23:56;;;;;;;12.85;6.28;;;;;;;4.47;100.00;101342.13;5039899;28;20052;-73
2022/12/26 07:26:23;;;;;;;14.02;6.95;;;;;;;4.50;100.00;101349.63;5034627;28;20029;-72
2022/12/26 07:28:55;;;;;;;12.70;6.75;;;;;;;4.65;100.00;101362.84;5044546;28;20052;-74
2022/12/26 07:31:22;;;;;;;17.50;7.38;;;;;;;4.67;100.00;101348.69;5035463;28;20097;-73
2022/12/26 07:33:48;;;;;;;15.82;7.07;;;;;;;4.72;100.00;101363.84;5036669;28;20033;-74
2022/12/26 07:36:13;;;;;;;15.18;6.82;;;;;;;4.73;100.00;101356.81;5039305;28;20055;-74
2022/12/26 07:38:39;;;;;;;13.50;7.10;;;;;;;4.76;100.00;101361.72;5038543;28;20064;-73
2022/12/26 07:41:56;;;;;;;14.80;7.20;;;;;;;4.83;100.00;101373.94;5045803;28;20028;-75
2022/12/26 07:43:50;;;;;;;16.95;8.18;;;;;;;4.94;100.00;101380.63;5037419;28;20446;-74
2022/12/26 07:46:15;;;;;;;16.75;8.27;;;;;;;4.94;100.00;101369.38;5033052;28;20022;-75
2022/12/26 07:48:40;;;;;;;17.15;8.32;;;;;;;4.98;100.00;101368.06;5035340;28;20041;-74
2022/12/26 07:51:06;;;;;;;20.88;9.65;;;;;;;5.07;100.00;101380.13;5035490;28;20028;-73
2022/12/26 07:53:34;;;;;;;70.40;19.75;;;;;;;5.15;100.00;101381.91;5037346;28;20490;-72
2022/12/26 07:55:59;;;;;;;368.60;80.20;;;;;;;5.53;100.00;101396.06;5033128;28;20029;-74
2022/12/26 07:58:24;;;;;;;29.92;13.57;;;;;;;5.77;100.00;101389.97;5037335;28;20095;-70
2022/12/26 08:00:50;;;;;;;27.45;14.95;;;;;;;5.71;100.00;101381.00;5032293;28;20113;-70
2022/12/26 08:03:15;;;;;;;21.98;11.18;;;;;;;5.60;100.00;101380.53;5035117;28;20032;-70
2022/12/26 08:05:44;;;;;;;15.77;9.00;;;;;;;5.58;100.00;101383.34;5038877;28;20029;-70
2022/12/26 08:08:09;;;;;;;16.55;8.88;;;;;;;5.60;100.00;101390.97;5036722;28;20121;-67
2022/12/26 08:10:35;;;;;;;13.68;7.85;;;;;;;5.48;100.00;101365.25;5036245;28;20108;-68
2022/12/26 08:13:00;;;;;;;12.93;6.95;;;;;;;5.62;100.00;101376.75;5032627;28;20029;-68
2022/12/26 08:15:25;;;;;;;12.32;6.50;;;;;;;5.62;100.00;101373.34;5041935;28;20131;-68
2022/12/26 08:17:51;;;;;;;13.13;6.35;;;;;;;5.60;100.00;101368.28;5041276;28;20087;-68
2022/12/26 08:20:16;;;;;;;12.10;6.32;;;;;;;5.70;100.00;101384.59;5029532;28;20070;-69
2022/12/26 08:22:42;;;;;;;12.63;7.07;;;;;;;5.71;100.00;101382.78;5033481;28;20128;-67
2022/12/26 08:25:08;;;;;;;11.98;6.53;;;;;;;5.54;100.00;101341.03;5032362;28;20042;-70
2022/12/26 08:27:33;;;;;;;10.75;5.85;;;;;;;5.89;100.00;101388.63;5040585;28;20033;-68
2022/12/26 08:29:58;;;;;;;19.80;12.68;;;;;;;5.85;100.00;101382.09;5031450;28;20029;-69
2022/12/26 08:32:24;;;;;;;19.63;11.15;;;;;;;5.95;100.00;101384.53;5039263;28;20124;-69
2022/12/26 08:34:49;;;;;;;14.30;8.50;;;;;;;5.94;100.00;101377.69;5030872;28;20022;-68
2022/12/26 08:37:15;;;;;;;14.02;5.55;;;;;;;6.05;100.00;101379.91;5036763;28;20510;-69
2022/12/26 08:39:40;;;;;;;11.65;7.30;;;;;;;6.15;100.00;101384.91;5031953;28;20024;-69
2022/12/26 08:42:05;;;;;;;13.15;6.70;;;;;;;6.21;100.00;101380.81;5032594;28;20033;-68
2022/12/26 08:44:31;;;;;;;20.63;11.93;;;;;;;6.28;100.00;101379.16;5032151;28;20060;-68
2022/12/26 08:46:56;;;;;;;14.48;10.23;;;;;;;6.38;100.00;101387.59;5035722;28;20032;-68
2022/12/26 08:49:21;;;;;;;17.05;9.27;;;;;;;6.37;100.00;101371.09;5032491;28;20033;-68
2022/12/26 08:51:47;;;;;;;10.10;4.75;;;;;;;6.57;100.00;101384.50;5033721;28;20033;-68
2022/12/26 08:54:15;;;;;;;8.60;4.22;;;;;;;6.52;100.00;101360.69;5043589;28;20028;-68
2022/12/26 08:56:40;;;;;;;9.75;4.43;;;;;;;6.71;100.00;101382.16;5040152;28;20022;-68
2022/12/26 08:59:06;;;;;;;11.05;4.80;;;;;;;6.69;100.00;101369.22;5036926;28;20035;-68
2022/12/26 09:01:31;;;;;;;6.63;4.35;;;;;;;6.51;100.00;101325.03;5030337;28;20459;-73
2022/12/26 09:04:01;;;;;;;6.72;4.18;;;;;;;6.86;100.00;101372.53;5034283;28;20033;-72
2022/12/26 09:06:27;;;;;;;7.15;3.50;;;;;;;7.05;100.00;101399.22;5040712;28;20040;-73
2022/12/26 09:08:53;;;;;;;7.63;4.13;;;;;;;7.07;100.00;101395.44;5035958;28;20036;-72
2022/12/26 09:11:21;;;;;;;13.80;6.22;;;;;;;7.17;100.00;101393.38;5037038;28;20020;-73
2022/12/26 09:13:47;;;;;;;7.70;4.37;;;;;;;7.12;99.78;101369.53;5032615;28;20566;-73
2022/12/26 09:16:19;;;;;;;10.70;6.10;;;;;;;7.32;99.73;101392.56;5047975;28;20025;-68
2022/12/26 09:18:45;;;;;;;10.00;6.78;;;;;;;7.42;99.01;101391.34;5030140;28;20774;-68
2022/12/26 09:21:12;;;;;;;8.05;5.65;;;;;;;7.46;97.66;101378.69;5031768;28;20035;-66
2022/12/26 09:23:39;;;;;;;11.57;4.50;;;;;;;7.59;97.48;101378.88;5032489;28;20073;-68
2022/12/26 09:26:07;;;;;;;6.57;4.40;;;;;;;7.72;95.98;101375.59;5039612;28;20108;-68
2022/12/26 09:28:33;;;;;;;7.93;5.40;;;;;;;7.75;95.37;101363.94;5033546;28;20482;-75
2022/12/26 09:31:01;;;;;;;13.35;5.20;;;;;;;7.83;94.78;101364.66;5030050;28;20115;-70
2022/12/26 09:33:28;;;;;;;9.70;6.13;;;;;;;7.89;94.16;101363.91;5035860;28;20127;-70
2022/12/26 09:35:53;;;;;;;9.00;5.75;;;;;;;7.95;94.22;101364.19;5031707;28;20048;-70
2022/12/26 09:38:19;;;;;;;11.55;5.97;;;;;;;7.95;92.52;101357.16;5029393;28;20060;-69
2022/12/26 09:41:04;;;;;;;12.18;4.90;;;;;;;8.06;92.85;101368.97;5032512;28;20021;-70
2022/12/26 09:43:43;;;;;;;10.73;6.88;;;;;;;8.11;92.67;101366.59;5036566;28;20124;-71
2022/12/26 09:46:26;;;;;;;11.52;5.35;;;;;;;8.15;92.35;101373.09;5032759;28;20068;-69
2022/12/26 09:49:01;;;;;;;10.27;7.28;;;;;;;8.14;92.22;101358.38;5034583;28;20484;-69
2022/12/26 09:51:30;;;;;;;9.80;5.80;;;;;;;8.20;92.38;101362.06;5033209;28;20045;-69
2022/12/26 09:53:56;;;;;;;19.83;14.23;;;;;;;8.12;92.69;101342.00;5034599;28;20116;-69
2022/12/26 09:56:25;;;;;;;24.25;15.80;;;;;;;8.20;92.21;101343.69;5034082;28;20067;-70
2022/12/26 09:58:58;;;;;;;25.10;16.55;;;;;;;8.29;91.83;101353.09;5046795;28;20076;-73
2022/12/26 10:01:34;;;;;;;22.40;14.75;;;;;;;8.00;91.70;101298.91;5030929;28;20036;-73
2022/12/26 10:04:03;;;;;;;17.75;9.73;;;;;;;8.38;91.28;101351.13;5035937;28;20033;-70
2022/12/26 10:06:42;;;;;;;22.48;13.90;;;;;;;8.37;91.46;101339.81;5036002;28;20044;-67
2022/12/26 10:09:19;;;;;;;15.77;9.15;;;;;;;8.48;91.42;101342.00;5040290;28;20072;-68
2022/12/26 10:12:10;;;;;;;10.30;6.13;;;;;;;8.55;90.91;101341.22;5037094;28;20071;-67
2022/12/26 10:15:06;;;;;;;12.10;5.82;;;;;;;8.61;90.44;101338.66;5041241;28;20024;-67
2022/12/26 10:17:37;;;;;;;12.73;8.07;;;;;;;8.67;90.32;101337.94;5039365;28;20033;-68
2022/12/26 10:20:24;;;;;;;14.32;8.48;;;;;;;8.72;90.11;101337.38;5044637;28;20021;-67
2022/12/26 10:23:08;;;;;;;17.20;10.18;;;;;;;8.79;89.14;101346.09;5034287;28;20121;-68
2022/12/26 10:25:47;;;;;;;11.70;5.90;;;;;;;8.85;89.09;101342.72;5036704;28;20081;-67
2022/12/26 10:28:44;;;;;;;11.52;6.25;;;;;;;8.92;87.83;101332.25;5032351;28;20040;-68
2022/12/26 10:31:23;;;;;;;14.90;8.57;;;;;;;8.97;88.25;101336.94;5036815;28;20386;-68
2022/12/26 10:34:17;;;;;;;17.23;9.40;;;;;;;9.03;87.93;101337.00;5033588;28;20017;-69
2022/12/26 10:37:24;;;;;;;12.20;6.90;;;;;;;9.10;88.08;101324.72;5033793;28;20133;-67
2022/12/26 10:40:01;;;;;;;11.05;5.97;;;;;;;9.16;87.26;101321.31;5025874;28;20048;-67
2022/12/26 10:42:37;;;;;;;14.75;7.93;;;;;;;9.12;87.62;101306.94;5039548;28;20032;-68
2022/12/26 10:45:11;;;;;;;27.05;11.68;;;;;;;9.27;87.28;101324.41;5034446;28;20044;-68
2022/12/26 10:47:40;;;;;;;15.93;9.82;;;;;;;9.28;87.65;101318.16;5033147;28;20033;-68
2022/12/26 10:50:15;;;;;;;9.93;6.45;;;;;;;9.37;86.88;101323.03;5032660;28;20041;-68
2022/12/26 10:52:40;;;;;;;9.10;6.07;;;;;;;9.29;86.00;101296.94;5033515;28;20029;-69
2022/12/26 10:55:11;;;;;;;10.05;6.85;;;;;;;9.31;86.69;101294.09;5038910;28;20048;-69
2022/12/26 10:57:40;;;;;;;14.02;6.07;;;;;;;9.50;86.41;101314.41;5032513;28;20120;-67
2022/12/26 11:00:20;;;;;;;13.50;7.20;;;;;;;9.50;85.66;101300.47;5032550;28;20550;-69
2022/12/26 11:03:05;;;;;;;11.18;5.60;;;;;;;9.54;86.12;101309.59;5034677;28;20042;-69
2022/12/26 11:05:34;;;;;;;16.15;8.02;;;;;;;9.57;86.20;101304.72;5034260;28;20034;-68
2022/12/26 11:08:15;;;;;;;11.38;7.18;;;;;;;9.63;85.56;101311.03;5035202;28;20491;-71
2022/12/26 11:11:02;;;;;;;10.35;6.72;;;;;;;9.63;85.62;101300.53;5035702;28;20121;-70
2022/12/26 11:16:41;;;;;;;9.38;4.88;;;;;;;9.73;84.73;101316.75;5037364;28;20029;-72
2022/12/26 11:19:25;;;;;;;14.68;6.10;;;;;;;9.65;84.42;101295.88;5032149;28;20108;-73
2022/12/26 11:21:50;;;;;;;9.60;4.25;;;;;;;9.74;83.92;101299.94;5031550;28;20021;-73
2022/12/26 11:24:18;;;;;;;9.52;4.60;;;;;;;9.83;83.62;101312.94;5037657;28;20053;-73
2022/12/26 11:26:44;;;;;;;11.93;5.40;;;;;;;9.78;83.04;101301.19;5033906;28;20030;-73
2022/12/26 11:29:10;;;;;;;10.50;4.20;;;;;;;9.87;82.85;101309.72;5030444;28;20029;-73
2022/12/26 11:31:39;;;;;;;11.18;5.07;;;;;;;9.88;83.20;101300.81;5032435;28;20116;-73
2022/12/26 11:34:15;;;;;;;9.35;4.32;;;;;;;9.93;82.72;101297.59;5031622;28;20031;-72
2022/12/26 11:36:47;;;;;;;7.40;4.28;;;;;;;9.91;83.20;101296.97;5033357;28;20504;-72
2022/12/26 11:39:22;;;;;;;7.88;4.30;;;;;;;10.01;83.13;101310.56;5033458;28;20035;-74
2022/12/26 11:41:48;;;;;;;9.05;4.15;;;;;;;9.73;82.74;101261.50;5047023;28;20032;-73
2022/12/26 11:44:27;;;;;;;9.25;3.78;;;;;;;10.02;82.63;101307.72;5033030;28;20033;-73
2022/12/26 11:47:08;;;;;;;8.05;4.07;;;;;;;9.63;82.83;101247.13;5032307;28;20104;-72
2022/12/26 11:49:38;;;;;;;10.52;4.38;;;;;;;9.98;82.43;101293.38;5035645;28;20143;-69
2022/12/26 11:52:31;;;;;;;9.60;4.50;;;;;;;10.13;82.54;101314.25;5031422;28;20391;-68
2022/12/26 11:54:56;;;;;;;7.38;4.45;;;;;;;10.02;81.97;101288.50;5048540;28;20033;-68
2022/12/26 11:57:28;;;;;;;9.05;4.38;;;;;;;10.16;82.83;101313.84;5029443;28;20054;-67
2022/12/26 12:00:13;;;;;;;9.57;4.45;;;;;;;10.20;82.80;101314.25;5047051;28;20502;-71
2022/12/26 12:02:40;;;;;;;10.30;5.00;;;;;;;10.12;82.92;101296.81;5042903;28;20120;-71
2022/12/26 12:05:14;;;;;;;7.82;4.45;;;;;;;10.13;82.89;101284.50;5035786;28;20033;-68
2022/12/26 12:07:50;;;;;;;10.63;4.93;;;;;;;10.22;82.81;101299.91;5033125;28;20029;-69
2022/12/26 12:10:46;;;;;;;8.95;4.93;;;;;;;10.29;82.71;101302.53;5034680;28;20668;-70
2022/12/26 12:13:36;;;;;;;7.78;4.13;;;;;;;10.32;82.37;101304.78;5035633;28;20114;-69
2022/12/26 12:16:07;;;;;;;10.57;4.60;;;;;;;10.34;82.75;101294.03;5036796;28;20387;-69
2022/12/26 12:18:36;;;;;;;10.82;4.63;;;;;;;10.35;82.70;101291.22;5032622;28;20033;-73
2022/12/26 12:21:38;;;;;;;9.18;4.43;;;;;;;10.27;82.76;101272.97;5032321;28;20029;-70
2022/12/26 12:24:38;;;;;;;9.65;4.95;;;;;;;10.40;82.56;101288.00;5033469;28;20061;-70
2022/12/26 12:27:28;;;;;;;13.85;5.80;;;;;;;10.41;82.73;101282.53;5033246;28;20186;-68
2022/12/26 12:30:08;;;;;;;12.75;5.88;;;;;;;10.43;82.96;101282.31;5031077;28;20037;-69
2022/12/26 12:32:37;;;;;;;13.15;5.50;;;;;;;10.44;82.78;101289.22;5032268;28;20013;-73
2022/12/26 12:35:26;;;;;;;12.35;5.15;;;;;;;10.45;82.30;101285.56;5036167;28;20085;-73
2022/12/26 12:37:57;;;;;;;8.05;4.53;;;;;;;10.46;82.42;101281.09;5030675;28;20453;-72
2022/12/26 12:40:34;;;;;;;9.68;5.10;;;;;;;10.47;81.65;101278.28;5034334;28;20176;-73
2022/12/26 12:43:31;;;;;;;11.30;4.88;;;;;;;10.47;81.65;101273.00;5029218;28;20079;-71
2022/12/26 12:46:11;;;;;;;10.38;4.82;;;;;;;10.43;81.07;101262.03;5030937;28;20075;-72
2022/12/26 12:48:49;;;;;;;11.10;5.22;;;;;;;10.49;80.68;101263.09;5031398;28;20037;-72
2022/12/26 12:51:44;;;;;;;8.15;4.72;;;;;;;10.41;79.84;101240.41;5041245;28;20056;-72
2022/12/26 12:54:38;;;;;;;12.60;4.80;;;;;;;10.49;79.65;101260.44;5041297;28;20110;-72
2022/12/26 12:57:18;;;;;;;11.65;5.03;;;;;;;10.50;79.73;101277.84;5035372;28;20582;-71
2022/12/26 12:59:56;;;;;;;13.98;6.07;;;;;;;10.52;80.02;101261.88;5029252;28;20056;-70
2022/12/26 13:02:44;;;;;;;13.60;6.38;;;;;;;10.53;80.01;101264.28;5031467;28;20069;-70
2022/12/26 13:05:39;;;;;;;9.83;5.47;;;;;;;10.54;80.57;101259.84;5022167;28;20133;-69
2022/12/26 13:08:13;;;;;;;9.23;4.82;;;;;;;10.52;79.56;101264.50;5032274;28;20270;-68
2022/12/26 13:10:53;;;;;;;9.82;4.88;;;;;;;10.51;79.57;101260.22;5029990;28;20029;-69
2022/12/26 13:13:35;;;;;;;9.25;4.75;;;;;;;10.45;79.87;101255.78;5033187;28;20027;-68
2022/12/26 13:16:21;;;;;;;9.75;4.57;;;;;;;10.55;80.21;101269.34;5033105;28;20014;-66
2022/12/26 13:18:59;;;;;;;12.90;5.35;;;;;;;10.27;80.50;101222.97;5044843;28;20021;-70
2022/12/26 13:21:29;;;;;;;13.02;5.43;;;;;;;10.58;80.15;101261.03;5041662;28;20025;-71
2022/12/26 13:24:22;;;;;;;7.55;4.57;;;;;;;10.58;80.36;101264.50;5036294;28;20052;-69
2022/12/26 13:26:56;;;;;;;8.57;4.63;;;;;;;10.54;80.75;101262.47;5032013;28;20032;-71
2022/12/26 13:29:34;;;;;;;10.43;5.13;;;;;;;10.58;80.75;101259.22;5049454;28;20258;-67
2022/12/26 13:32:03;;;;;;;10.95;5.18;;;;;;;10.58;81.00;101263.66;5035824;28;20103;-67
2022/12/26 13:34:29;;;;;;;7.85;5.03;;;;;;;10.58;81.00;101268.94;5030253;28;20474;-69
2022/12/26 13:36:57;;;;;;;9.40;4.47;;;;;;;10.59;81.15;101268.75;5041250;28;20037;-69
2022/12/26 13:39:22;;;;;;;9.40;4.80;;;;;;;10.59;81.44;101268.75;5045932;28;20041;-69
2022/12/26 13:44:36;;;;;;;9.07;4.20;;;;;;;10.58;80.79;101271.56;5039758;28;20335;-69